Terminal Aerodrome Forecast
Issued by NWS

Home | Current Version | Previous Version | Text Only | Print | Product List | Glossary On
Versions: 1 2 3 4 5 6 7 8 9 10 11 12 13 14
000
FTUS46 KSEW 301741
TAFCLM
TAF
KCLM 301741Z 3018/0118 36004KT P6SM SKC
     FM302200 33005KT P6SM BKN200
     FM010200 28004KT P6SM SCT060 BKN150
     FM011200 19003KT P6SM VCSH BKN050
     FM011700 17004KT 6SM -RA SCT007 OVC040=

USA.gov is the U.S. government's official web portal to all federal, state and local government web resources and services.